Time;durP1;ratioP1;P1;durP2;ratioP2;P2;SDS_P1;SDS_P2;PMS_P1;PMS_P2;Temp;Humidity;BMP_temperature;BMP_pressure;BME280_temperature;BME280_humidity;BME280_pressure;Samples;Min_cycle;Max_cycle;Signal;HPM_P1;HPM_P2
2022/07/10 00:00:11;;;;;;;5.00;2.50;;;15.00;13.70;;;;;;5096943;28;20191;-68
2022/07/10 00:02:38;;;;;;;6.40;2.77;;;15.10;15.00;;;;;;5096377;28;20261;-67
2022/07/10 00:05:05;;;;;;;6.33;3.13;;;15.10;12.80;;;;;;5096848;28;20168;-68
2022/07/10 00:07:30;;;;;;;9.50;3.10;;;15.10;13.10;;;;;;5096852;28;20172;-68
2022/07/10 00:09:56;;;;;;;8.40;3.27;;;15.10;12.10;;;;;;5096432;28;20603;-68
2022/07/10 00:12:22;;;;;;;14.83;3.17;;;15.10;12.30;;;;;;5096735;28;20167;-69
2022/07/10 00:14:47;;;;;;;4.40;2.60;;;15.10;10.80;;;;;;5096360;28;20195;-68
2022/07/10 00:17:13;;;;;;;7.53;2.80;;;15.20;10.20;;;;;;5095031;28;20525;-68
2022/07/10 00:19:39;;;;;;;5.80;3.07;;;15.10;12.60;;;;;;5096632;28;20179;-68
2022/07/10 00:22:05;;;;;;;4.37;2.50;;;15.10;10.40;;;;;;5096253;28;20249;-68
2022/07/10 00:24:30;;;;;;;7.33;2.83;;;15.10;11.10;;;;;;5096445;28;20179;-67
2022/07/10 00:26:56;;;;;;;5.33;2.83;;;15.10;12.10;;;;;;5096380;28;20170;-67
2022/07/10 00:29:22;;;;;;;7.17;2.80;;;15.10;13.50;;;;;;5096312;28;20172;-67
2022/07/10 00:31:48;;;;;;;6.57;2.90;;;15.00;14.50;;;;;;5096105;28;20627;-69
2022/07/10 00:34:13;;;;;;;6.00;2.63;;;15.00;16.30;;;;;;5096205;28;20216;-67
2022/07/10 00:36:39;;;;;;;7.07;2.73;;;15.00;15.50;;;;;;5096184;28;20172;-67
2022/07/10 00:39:04;;;;;;;2.90;2.53;;;15.10;14.40;;;;;;5096194;28;20168;-68
2022/07/10 00:41:30;;;;;;;5.93;2.80;;;15.10;11.40;;;;;;5095835;28;20261;-67
2022/07/10 00:43:57;;;;;;;8.80;3.10;;;15.00;13.90;;;;;;5095894;28;20702;-68
2022/07/10 00:46:25;;;;;;;7.37;2.73;;;15.00;16.60;;;;;;5095642;28;20237;-68
2022/07/10 00:48:51;;;;;;;9.97;2.90;;;15.00;15.30;;;;;;5094688;28;20221;-69
2022/07/10 00:51:18;;;;;;;7.80;3.00;;;15.00;13.50;;;;;;5095828;28;20631;-67
2022/07/10 00:53:46;;;;;;;5.30;2.97;;;15.00;13.80;;;;;;5095898;28;20168;-67
2022/07/10 00:56:13;;;;;;;9.07;3.30;;;15.00;11.20;;;;;;5095755;28;20164;-67
2022/07/10 00:58:40;;;;;;;5.90;2.70;;;14.90;14.30;;;;;;5095932;28;20221;-67
2022/07/10 01:01:06;;;;;;;6.10;3.00;;;14.90;16.40;;;;;;5095314;28;20238;-67
2022/07/10 01:03:31;;;;;;;4.73;2.93;;;14.70;19.40;;;;;;5095797;28;20196;-67
2022/07/10 01:05:58;;;;;;;8.87;3.27;;;14.80;21.70;;;;;;5095463;28;20221;-68
2022/07/10 01:08:24;;;;;;;10.33;3.23;;;14.80;20.10;;;;;;5094979;28;20211;-67
2022/07/10 01:10:50;;;;;;;8.87;3.20;;;14.70;23.10;;;;;;5094983;28;20230;-67
2022/07/10 01:13:15;;;;;;;4.90;2.83;;;14.60;25.60;;;;;;5095137;28;20580;-68
2022/07/10 01:15:41;;;;;;;4.87;2.37;;;14.60;26.60;;;;;;5095644;28;20259;-68
2022/07/10 01:18:07;;;;;;;7.50;2.97;;;14.50;29.70;;;;;;5094007;28;20193;-68
2022/07/10 01:20:33;;;;;;;10.97;3.20;;;14.50;35.60;;;;;;5095435;28;20624;-68
2022/07/10 01:22:59;;;;;;;5.17;2.90;;;14.40;34.00;;;;;;5095054;28;20172;-68
2022/07/10 01:25:26;;;;;;;5.57;2.80;;;14.40;36.40;;;;;;5095166;28;20172;-68
2022/07/10 01:27:52;;;;;;;3.70;2.37;;;14.40;35.50;;;;;;5094727;28;20661;-67
2022/07/10 01:30:19;;;;;;;9.10;2.73;;;14.40;34.10;;;;;;5095178;28;20164;-66
2022/07/10 01:32:45;;;;;;;4.67;2.53;;;14.50;33.90;;;;;;5095192;28;20199;-67
2022/07/10 01:35:11;;;;;;;4.60;2.80;;;14.50;31.70;;;;;;5094981;28;20191;-67
2022/07/10 01:37:37;;;;;;;3.60;2.50;;;14.60;30.50;;;;;;5095205;28;20175;-67
2022/07/10 01:40:04;;;;;;;8.07;3.07;;;14.60;28.80;;;;;;5094741;28;20171;-68
2022/07/10 01:42:29;;;;;;;7.87;2.83;;;14.60;26.40;;;;;;5094459;28;20303;-67
2022/07/10 01:44:55;;;;;;;6.33;2.80;;;14.60;27.90;;;;;;5093396;28;20207;-67
2022/07/10 01:47:25;;;;;;;6.23;2.80;;;14.40;32.00;;;;;;5093402;28;20198;-67
2022/07/10 01:49:53;;;;;;;6.50;2.63;;;14.40;35.60;;;;;;5094731;28;20631;-67
2022/07/10 01:52:19;;;;;;;5.40;2.70;;;14.30;40.00;;;;;;5094753;28;20167;-67
2022/07/10 01:54:45;;;;;;;3.20;2.90;;;14.20;41.90;;;;;;5094529;28;20178;-67
2022/07/10 01:57:11;;;;;;;5.47;2.73;;;14.20;43.00;;;;;;5094432;28;20168;-67
2022/07/10 01:59:37;;;;;;;4.90;2.67;;;14.20;44.70;;;;;;5094624;28;20167;-67
2022/07/10 02:02:03;;;;;;;4.53;2.67;;;14.10;46.30;;;;;;5094416;28;20234;-67
2022/07/10 02:04:43;;;;;;;3.67;2.67;;;14.10;48.40;;;;;;5094451;28;20171;-67
2022/07/10 02:07:15;;;;;;;5.07;2.90;;;14.10;51.40;;;;;;5094529;28;20230;-67
2022/07/10 02:09:41;;;;;;;7.97;2.50;;;14.10;52.60;;;;;;5094121;28;20168;-67
2022/07/10 02:12:14;;;;;;;6.33;2.80;;;14.00;54.50;;;;;;5094143;28;20184;-67
2022/07/10 02:14:41;;;;;;;6.83;2.57;;;14.00;55.50;;;;;;5094358;28;20180;-67
2022/07/10 02:17:07;;;;;;;5.43;2.93;;;14.00;55.10;;;;;;5094231;28;20183;-67
2022/07/10 02:19:34;;;;;;;6.20;2.63;;;14.00;57.70;;;;;;5094141;28;20547;-67
2022/07/10 02:22:00;;;;;;;6.47;2.83;;;14.00;56.80;;;;;;5093410;28;20654;-67
2022/07/10 02:24:26;;;;;;;5.73;2.53;;;14.00;55.30;;;;;;5094210;28;20216;-67
2022/07/10 02:26:52;;;;;;;4.37;2.60;;;14.00;57.70;;;;;;5093659;28;20274;-67
2022/07/10 02:29:18;;;;;;;5.90;2.43;;;13.90;59.60;;;;;;5094232;28;20249;-67
2022/07/10 02:31:44;;;;;;;3.90;2.40;;;13.90;60.30;;;;;;5094009;28;20199;-67
2022/07/10 02:34:14;;;;;;;6.17;2.40;;;13.90;59.80;;;;;;5093791;28;20635;-67
2022/07/10 02:36:40;;;;;;;5.27;2.63;;;14.00;58.70;;;;;;5093933;28;20179;-67
2022/07/10 02:39:06;;;;;;;5.40;2.60;;;14.00;55.80;;;;;;5094000;28;20168;-67
2022/07/10 02:41:32;;;;;;;4.60;2.77;;;14.00;53.60;;;;;;5093395;28;20211;-67
2022/07/10 02:43:58;;;;;;;8.20;2.70;;;14.00;52.50;;;;;;5094006;28;20167;-67
2022/07/10 02:46:24;;;;;;;4.97;2.90;;;14.10;49.60;;;;;;5093805;28;20195;-67
2022/07/10 02:48:50;;;;;;;6.13;2.53;;;14.00;46.10;;;;;;5093763;28;20288;-68
2022/07/10 02:51:16;;;;;;;5.37;2.90;;;14.00;47.30;;;;;;5093660;28;20172;-67
2022/07/10 02:53:42;;;;;;;5.23;2.40;;;14.00;50.20;;;;;;5093608;28;20175;-67
2022/07/10 02:56:08;;;;;;;6.17;2.60;;;14.00;51.10;;;;;;5093287;28;20171;-67
2022/07/10 02:58:34;;;;;;;6.67;2.60;;;14.10;48.60;;;;;;5093580;28;20191;-67
2022/07/10 03:01:00;;;;;;;7.63;2.83;;;14.10;48.60;;;;;;5093537;28;20211;-67
2022/07/10 03:03:26;;;;;;;3.83;2.20;;;14.10;48.00;;;;;;5093593;28;20175;-67
2022/07/10 03:05:52;;;;;;;5.27;2.40;;;14.10;43.80;;;;;;5093650;28;20262;-66
2022/07/10 03:08:18;;;;;;;10.27;2.57;;;14.00;43.50;;;;;;5093539;28;20172;-67
2022/07/10 03:10:43;;;;;;;4.77;2.53;;;13.90;48.60;;;;;;5092825;28;20212;-68
2022/07/10 03:13:09;;;;;;;6.67;2.50;;;13.90;51.30;;;;;;5093206;28;20509;-67
2022/07/10 03:15:35;;;;;;;4.80;2.27;;;13.90;51.50;;;;;;5093226;28;20615;-66
2022/07/10 03:18:01;;;;;;;3.40;2.37;;;13.80;54.90;;;;;;5093226;28;20168;-67
2022/07/10 03:20:26;;;;;;;6.20;2.73;;;13.90;55.10;;;;;;5093331;28;20175;-66
2022/07/10 03:22:52;;;;;;;4.33;2.67;;;13.80;54.30;;;;;;5093219;28;20180;-66
2022/07/10 03:25:18;;;;;;;7.40;2.70;;;13.90;55.60;;;;;;5092792;28;20172;-66
2022/07/10 03:27:43;;;;;;;6.90;2.70;;;14.00;50.80;;;;;;5093326;28;20534;-66
2022/07/10 03:30:09;;;;;;;5.13;2.50;;;14.00;49.10;;;;;;5093337;28;20523;-67
2022/07/10 03:32:35;;;;;;;6.40;2.90;;;14.00;47.60;;;;;;5095288;28;20183;-67
2022/07/10 03:35:01;;;;;;;4.20;2.43;;;14.00;49.00;;;;;;5096152;28;20247;-67
2022/07/10 03:37:27;;;;;;;3.27;2.30;;;14.00;52.10;;;;;;5097493;28;20187;-67
2022/07/10 03:39:53;;;;;;;4.80;2.30;;;14.10;46.90;;;;;;5096723;28;20663;-67
2022/07/10 03:42:18;;;;;;;6.37;2.80;;;14.20;43.20;;;;;;5097013;28;20211;-67
2022/07/10 03:44:44;;;;;;;7.07;2.90;;;14.20;42.80;;;;;;5097268;28;20168;-67
2022/07/10 03:47:10;;;;;;;8.50;2.67;;;14.10;45.80;;;;;;5097062;28;20215;-67
2022/07/10 03:49:36;;;;;;;5.33;2.63;;;14.10;46.90;;;;;;5096786;28;20183;-67
2022/07/10 03:52:02;;;;;;;6.37;3.00;;;14.10;49.70;;;;;;5096938;28;20184;-67
2022/07/10 03:54:29;;;;;;;4.33;2.63;;;14.20;47.60;;;;;;5096518;28;20198;-66
2022/07/10 03:59:39;;;;;;;9.00;2.97;;;14.80;47.50;;;;;;5097069;28;20174;-67
2022/07/10 04:02:05;;;;;;;5.00;2.87;;;15.30;36.80;;;;;;5096736;28;20298;-67
2022/07/10 04:04:31;;;;;;;6.00;2.70;;;15.80;18.40;;;;;;5096820;28;20176;-68
2022/07/10 04:06:56;;;;;;;10.83;3.07;;;16.50;1.00;;;;;;5096691;28;20590;-67
2022/07/10 04:09:22;;;;;;;3.53;2.30;;;17.10;1.00;;;;;;5096415;28;20182;-68
2022/07/10 04:11:47;;;;;;;5.00;2.60;;;17.90;1.00;;;;;;5096277;28;20724;-68
2022/07/10 04:14:13;;;;;;;5.53;2.40;;;18.60;1.00;;;;;;5096504;28;20560;-67
2022/07/10 04:16:39;;;;;;;3.73;2.50;;;19.20;1.00;;;;;;5096513;28;20179;-67
2022/07/10 04:19:04;;;;;;;4.15;1.92;;;20.00;99.90;;;;;;5096341;28;20687;-67
2022/07/10 04:21:30;;;;;;;4.22;2.22;;;20.80;1.00;;;;;;5096072;28;20698;-68
2022/07/10 04:23:55;;;;;;;5.75;2.88;;;21.10;1.00;;;;;;5096005;28;20168;-68
2022/07/10 04:26:21;;;;;;;5.05;2.20;;;21.90;99.90;;;;;;5096359;28;20584;-68
2022/07/10 04:28:47;;;;;;;6.13;2.25;;;22.60;99.90;;;;;;5096295;28;20164;-68
2022/07/10 04:31:12;;;;;;;4.85;2.30;;;23.30;99.90;;;;;;5096189;28;20167;-68
2022/07/10 04:33:38;;;;;;;4.47;2.28;;;23.80;25.10;;;;;;5095823;28;20179;-68
2022/07/10 04:36:04;;;;;;;2.75;2.03;;;24.40;1.00;;;;;;5096320;28;20172;-68
2022/07/10 04:38:31;;;;;;;2.90;2.28;;;24.90;1.00;;;;;;5095773;28;20538;-68
2022/07/10 04:40:57;;;;;;;4.25;2.35;;;25.20;1.00;;;;;;5095967;28;20214;-68
2022/07/10 04:43:22;;;;;;;5.97;2.30;;;25.40;99.90;;;;;;5094662;28;20172;-68
2022/07/10 04:45:48;;;;;;;4.80;2.10;;;25.90;99.90;;;;;;5096194;28;20530;-68
2022/07/10 04:48:13;;;;;;;3.63;2.22;;;26.40;99.90;;;;;;5095882;28;20168;-68
2022/07/10 04:50:39;;;;;;;4.80;2.20;;;27.10;99.90;;;;;;5095751;28;20164;-68
2022/07/10 04:53:04;;;;;;;4.15;2.20;;;27.50;99.90;;;;;;5095603;28;20176;-68
2022/07/10 04:55:30;;;;;;;4.05;2.03;;;27.80;99.90;;;;;;5095525;28;20172;-68
2022/07/10 04:57:56;;;;;;;5.57;2.22;;;28.40;99.90;;;;;;5095846;28;20176;-68
2022/07/10 05:00:21;;;;;;;2.60;1.63;;;28.60;99.90;;;;;;5095735;28;20190;-68
2022/07/10 05:02:47;;;;;;;5.22;2.40;;;29.10;99.90;;;;;;5095432;28;20218;-68
2022/07/10 05:05:13;;;;;;;3.70;2.30;;;29.20;99.90;;;;;;5095278;28;20176;-68
2022/07/10 05:07:38;;;;;;;4.57;2.10;;;29.20;99.90;;;;;;5095670;28;20172;-68
2022/07/10 05:10:04;;;;;;;2.95;1.80;;;29.50;99.90;;;;;;5095131;28;20223;-69
2022/07/10 05:12:30;;;;;;;4.63;2.08;;;29.70;99.90;;;;;;5095375;28;20724;-68
2022/07/10 05:14:56;;;;;;;4.95;2.33;;;30.40;99.90;;;;;;5095239;28;20184;-69
2022/07/10 05:17:22;;;;;;;3.28;2.13;;;30.70;99.90;;;;;;5095506;28;20191;-69
2022/07/10 05:19:48;;;;;;;4.45;2.40;;;31.00;99.90;;;;;;5094719;28;20168;-69
2022/07/10 05:22:14;;;;;;;5.43;2.17;;;31.20;99.90;;;;;;5095245;28;20214;-69
2022/07/10 05:24:39;;;;;;;3.03;2.05;;;31.20;99.90;;;;;;5095510;28;20647;-69
2022/07/10 05:27:05;;;;;;;3.45;2.20;;;31.40;99.90;;;;;;5094789;28;20168;-69
2022/07/10 05:29:31;;;;;;;4.65;2.20;;;31.50;99.90;;;;;;5095399;28;20211;-70
2022/07/10 05:31:57;;;;;;;5.25;2.05;;;31.90;98.50;;;;;;5094681;28;20210;-69
2022/07/10 05:34:22;;;;;;;4.82;1.92;;;31.00;95.70;;;;;;5094900;28;20168;-70
2022/07/10 05:36:48;;;;;;;6.35;2.20;;;31.00;97.90;;;;;;5095026;28;20168;-70
2022/07/10 05:39:13;;;;;;;3.45;1.58;;;31.20;96.50;;;;;;5094885;28;20170;-70
2022/07/10 05:41:39;;;;;;;3.97;2.33;;;31.30;95.70;;;;;;5094456;28;20529;-70
2022/07/10 05:44:04;;;;;;;3.03;1.50;;;31.30;93.80;;;;;;5094778;28;20164;-70
2022/07/10 05:46:30;;;;;;;2.47;1.63;;;31.90;91.40;;;;;;5094542;28;20598;-70
2022/07/10 05:48:56;;;;;;;5.57;1.52;;;32.40;83.80;;;;;;5094436;28;20171;-70
2022/07/10 05:51:21;;;;;;;8.20;1.83;;;32.00;80.60;;;;;;5094719;28;20176;-70
2022/07/10 05:53:47;;;;;;;4.22;1.70;;;32.00;78.40;;;;;;5094532;28;20620;-70
2022/07/10 05:56:13;;;;;;;3.58;1.70;;;32.60;78.00;;;;;;5094132;28;20171;-70
2022/07/10 05:58:38;;;;;;;5.10;1.70;;;31.30;72.30;;;;;;5094262;28;20254;-69
2022/07/10 06:01:04;;;;;;;2.55;1.50;;;30.00;80.40;;;;;;5094276;28;20204;-69
2022/07/10 06:03:30;;;;;;;2.88;1.65;;;27.80;96.90;;;;;;5094169;28;20171;-69
2022/07/10 06:05:55;;;;;;;3.20;1.48;;;26.20;99.90;;;;;;5094156;28;20226;-68
2022/07/10 06:08:21;;;;;;;3.78;1.60;;;24.30;99.90;;;;;;5094400;28;20218;-68
2022/07/10 06:10:47;;;;;;;4.22;1.65;;;23.30;1.00;;;;;;5093875;28;20223;-68
2022/07/10 06:13:12;;;;;;;3.80;1.40;;;22.60;99.90;;;;;;5094105;28;20190;-68
2022/07/10 06:15:38;;;;;;;2.42;1.58;;;22.10;99.90;;;;;;5094137;28;20641;-68
2022/07/10 06:18:04;;;;;;;4.95;1.95;;;21.90;1.00;;;;;;5093384;28;20267;-66
2022/07/10 06:20:30;;;;;;;4.53;1.65;;;21.70;1.00;;;;;;5094256;28;20229;-67
2022/07/10 06:22:57;;;;;;;3.40;1.98;;;21.30;1.00;;;;;;5093790;28;20180;-68
2022/07/10 06:25:23;;;;;;;3.58;1.83;;;21.40;1.00;;;;;;5094011;28;20198;-68
2022/07/10 06:27:48;;;;;;;3.75;2.20;;;21.60;99.90;;;;;;5094255;28;20263;-68
2022/07/10 06:30:14;;;;;;;5.18;2.47;;;21.60;99.90;;;;;;5093895;28;20168;-67
2022/07/10 06:32:40;;;;;;;4.88;1.80;;;21.40;23.10;;;;;;5093572;28;20258;-67
2022/07/10 06:35:07;;;;;;;4.55;2.25;;;21.30;1.00;;;;;;5093566;28;20631;-68
2022/07/10 06:37:33;;;;;;;3.47;2.00;;;21.20;1.00;;;;;;5093732;28;20187;-67
2022/07/10 06:39:58;;;;;;;4.45;2.22;;;21.20;1.00;;;;;;5093494;28;20176;-67
2022/07/10 06:42:24;;;;;;;6.43;1.90;;;21.10;99.90;;;;;;5093652;28;20211;-67
2022/07/10 06:44:50;;;;;;;4.60;1.80;;;20.90;99.90;;;;;;5093453;28;20164;-67
2022/07/10 06:50:07;;;;;;;7.20;1.67;;;20.60;1.00;;;;;;5093792;28;20646;-67
2022/07/10 06:52:33;;;;;;;4.18;1.88;;;20.40;1.00;;;;;;5093661;28;20251;-67
2022/07/10 06:55:00;;;;;;;5.00;2.10;;;20.60;99.90;;;;;;5093639;28;20168;-67
2022/07/10 06:57:26;;;;;;;5.05;1.85;;;20.80;99.90;;;;;;5092902;28;20317;-67
2022/07/10 06:59:52;;;;;;;5.40;1.83;;;20.50;1.00;;;;;;5093457;28;20239;-67
2022/07/10 07:02:18;;;;;;;7.75;2.05;;;20.60;1.00;;;;;;5093040;28;20200;-67
2022/07/10 07:04:47;;;;;;;3.63;1.98;;;20.50;1.00;;;;;;5093154;28;20179;-67
2022/07/10 07:07:13;;;;;;;2.70;1.77;;;20.80;1.00;;;;;;5092628;28;20218;-67
2022/07/10 07:09:39;;;;;;;2.53;1.67;;;20.70;1.00;;;;;;5093173;28;20172;-68
2022/07/10 07:12:06;;;;;;;6.18;2.03;;;21.00;1.00;;;;;;5092787;28;20684;-67
2022/07/10 07:14:32;;;;;;;3.40;2.03;;;20.80;1.00;;;;;;5093310;28;20279;-67
2022/07/10 07:17:00;;;;;;;4.72;1.60;;;20.90;1.00;;;;;;5092436;28;20646;-67
2022/07/10 07:24:56;;;;;;;5.18;1.77;;;21.30;1.00;;;;;;5093158;28;20531;-67
2022/07/10 07:27:21;;;;;;;4.03;1.92;;;21.40;1.00;;;;;;5092769;28;20172;-67
2022/07/10 07:29:47;;;;;;;3.25;1.90;;;21.80;99.90;;;;;;5092991;28;20191;-67
2022/07/10 07:32:12;;;;;;;2.70;1.60;;;21.80;99.90;;;;;;5092642;28;20217;-67
2022/07/10 07:34:38;;;;;;;6.70;1.90;;;22.10;1.00;;;;;;5092905;28;20168;-67
2022/07/10 07:37:04;;;;;;;3.03;1.73;;;22.50;1.00;;;;;;5093200;28;20614;-67
2022/07/10 07:39:29;;;;;;;3.05;1.60;;;22.70;1.00;;;;;;5092776;28;20168;-67
2022/07/10 07:41:55;;;;;;;3.58;1.75;;;22.80;1.00;;;;;;5092931;28;20199;-67
2022/07/10 07:44:20;;;;;;;3.78;1.85;;;23.10;99.90;;;;;;5092462;28;20171;-67
2022/07/10 07:46:46;;;;;;;3.15;1.80;;;23.80;99.90;;;;;;5092135;28;20183;-67
2022/07/10 07:49:11;;;;;;;5.95;1.95;;;24.20;56.30;;;;;;5093107;28;20667;-67
2022/07/10 07:51:37;;;;;;;4.30;1.75;;;24.50;1.00;;;;;;5092546;28;20176;-68
2022/07/10 07:54:03;;;;;;;4.72;1.85;;;25.20;1.00;;;;;;5092290;28;20175;-68
2022/07/10 07:56:28;;;;;;;4.15;1.83;;;25.80;1.00;;;;;;5092667;28;20526;-69
2022/07/10 07:58:54;;;;;;;2.75;1.60;;;25.20;1.00;;;;;;5091907;28;20172;-67
2022/07/10 08:01:19;;;;;;;3.05;1.80;;;24.20;1.00;;;;;;5092587;28;20208;-68
2022/07/10 08:03:45;;;;;;;4.95;1.75;;;23.60;99.90;;;;;;5092577;28;20191;-68
2022/07/10 08:06:11;;;;;;;11.85;2.20;;;23.70;99.90;;;;;;5092264;28;20179;-68
2022/07/10 08:08:37;;;;;;;2.67;1.98;;;23.80;99.90;;;;;;5092352;28;20172;-68
2022/07/10 08:11:03;;;;;;;4.75;1.70;;;24.50;1.00;;;;;;5091885;28;20555;-69
2022/07/10 08:13:29;;;;;;;5.70;2.10;;;24.70;1.00;;;;;;5092765;28;20179;-69
2022/07/10 08:15:54;;;;;;;4.18;1.85;;;25.50;1.00;;;;;;5092019;28;20543;-69
2022/07/10 08:18:20;;;;;;;2.35;1.58;;;26.10;99.90;;;;;;5092429;28;20194;-69
2022/07/10 08:20:45;;;;;;;3.65;1.75;;;26.60;99.90;;;;;;5095937;28;20179;-69
2022/07/10 08:23:11;;;;;;;2.42;1.58;;;27.80;99.90;;;;;;5096301;28;20588;-70
2022/07/10 08:25:36;;;;;;;2.67;1.80;;;27.90;99.90;;;;;;5096250;28;20168;-70
2022/07/10 08:28:03;;;;;;;4.40;1.92;;;27.80;99.90;;;;;;5096099;28;20172;-70
2022/07/10 08:30:30;;;;;;;4.50;1.80;;;28.20;99.90;;;;;;5095612;28;20541;-70
2022/07/10 08:32:56;;;;;;;3.80;2.08;;;28.80;99.90;;;;;;5096018;28;20164;-71
2022/07/10 08:35:21;;;;;;;2.55;1.42;;;28.60;99.90;;;;;;5094798;28;20681;-71
2022/07/10 08:37:47;;;;;;;2.75;1.70;;;28.90;99.90;;;;;;5095917;28;20184;-71
2022/07/10 08:40:14;;;;;;;2.72;1.80;;;28.80;99.90;;;;;;5095964;28;20172;-71
2022/07/10 08:42:41;;;;;;;2.30;1.80;;;28.70;99.90;;;;;;5095655;28;20662;-71
2022/07/10 08:45:07;;;;;;;2.63;1.70;;;28.60;99.90;;;;;;5095492;28;20530;-71
2022/07/10 08:47:38;;;;;;;1.95;1.50;;;28.90;99.90;;;;;;5095513;28;20257;-71
2022/07/10 08:50:04;;;;;;;2.47;1.50;;;28.80;99.90;;;;;;5095911;28;20168;-71
2022/07/10 08:52:55;;;;;;;3.28;1.50;;;29.10;99.90;;;;;;5095213;28;20633;-72
2022/07/10 08:55:23;;;;;;;2.63;1.85;;;29.50;99.90;;;;;;5095771;28;20167;-71
2022/07/10 08:57:50;;;;;;;4.25;1.77;;;29.50;99.90;;;;;;5094656;28;20164;-71
2022/07/10 09:00:16;;;;;;;3.67;1.75;;;29.10;99.90;;;;;;5095940;28;20172;-72
2022/07/10 09:02:42;;;;;;;2.75;1.63;;;26.80;99.90;;;;;;5095407;28;20728;-71
2022/07/10 09:05:08;;;;;;;2.13;1.80;;;25.90;99.90;;;;;;5094114;28;20172;-70
2022/07/10 09:07:38;;;;;;;3.63;1.73;;;25.50;99.90;;;;;;5095374;28;20176;-70
2022/07/10 09:10:08;;;;;;;4.38;1.90;;;25.60;99.90;;;;;;5095076;28;20211;-70
2022/07/10 09:12:55;;;;;;;2.25;1.52;;;25.60;99.90;;;;;;5094995;28;20168;-70
2022/07/10 09:15:23;;;;;;;3.85;1.98;;;26.00;99.90;;;;;;5095152;28;20182;-70
2022/07/10 09:17:56;;;;;;;1.80;1.70;;;25.70;99.90;;;;;;5095331;28;20201;-70
2022/07/10 09:20:29;;;;;;;3.38;1.70;;;25.20;99.90;;;;;;5095320;28;20694;-70
2022/07/10 09:22:56;;;;;;;3.38;1.80;;;24.40;1.00;;;;;;5094800;28;20276;-70
2022/07/10 09:25:21;;;;;;;1.95;1.63;;;24.50;1.00;;;;;;5095198;28;20182;-70
2022/07/10 09:27:54;;;;;;;3.20;1.70;;;24.70;1.00;;;;;;5093607;28;20489;-70
2022/07/10 09:30:39;;;;;;;4.03;2.05;;;25.30;1.00;;;;;;5094406;28;20496;-70
2022/07/10 09:33:18;;;;;;;5.57;1.90;;;25.90;99.90;;;;;;5094781;28;20167;-70
2022/07/10 09:36:04;;;;;;;4.20;2.00;;;25.90;99.90;;;;;;5094936;28;20175;-71
2022/07/10 09:38:39;;;;;;;3.75;1.90;;;26.00;99.90;;;;;;5094397;28;20168;-71
2022/07/10 09:41:21;;;;;;;3.50;1.80;;;26.30;99.90;;;;;;5094132;28;20191;-71
2022/07/10 09:43:48;;;;;;;3.00;2.45;;;26.10;99.90;;;;;;5094655;28;20209;-71
2022/07/10 09:46:15;;;;;;;4.13;2.38;;;26.20;99.90;;;;;;5094718;28;20728;-71
2022/07/10 09:48:41;;;;;;;2.50;2.00;;;26.50;99.90;;;;;;5094147;28;20218;-70
2022/07/10 09:51:10;;;;;;;4.05;2.20;;;26.50;99.90;;;;;;5094402;28;20175;-71
2022/07/10 09:53:43;;;;;;;4.68;2.20;;;25.70;99.90;;;;;;5094395;28;20172;-69
2022/07/10 09:56:11;;;;;;;4.45;2.05;;;26.00;99.90;;;;;;5094151;28;20176;-70
2022/07/10 09:58:38;;;;;;;2.33;2.05;;;26.50;99.90;;;;;;5094025;28;20195;-70
2022/07/10 10:01:05;;;;;;;4.72;2.33;;;26.90;99.90;;;;;;5094077;28;20248;-70
2022/07/10 10:03:36;;;;;;;6.68;2.20;;;26.90;99.90;;;;;;5094072;28;20172;-70
2022/07/10 10:06:14;;;;;;;2.88;1.90;;;27.00;99.90;;;;;;5094456;28;20172;-69
2022/07/10 10:08:55;;;;;;;2.97;2.35;;;26.70;99.90;;;;;;5093767;28;20216;-69
2022/07/10 10:11:21;;;;;;;3.92;2.17;;;26.80;99.90;;;;;;5092970;28;20226;-69
2022/07/10 10:13:48;;;;;;;4.55;2.40;;;26.70;99.90;;;;;;5093488;28;20202;-70
2022/07/10 10:16:14;;;;;;;2.25;2.05;;;26.50;99.90;;;;;;5094035;28;20615;-70
2022/07/10 10:20:36;;;;;;;3.35;2.20;;;26.50;99.90;;;;;;5094079;28;20175;-70
2022/07/10 10:21:28;;;;;;;2.47;1.95;;;26.60;99.90;;;;;;5093991;28;20298;-71
2022/07/10 10:23:55;;;;;;;3.78;2.67;;;26.50;99.90;;;;;;5093548;28;20176;-70
2022/07/10 10:26:22;;;;;;;3.40;2.17;;;26.50;99.90;;;;;;5093534;28;20200;-70
2022/07/10 10:28:49;;;;;;;3.38;2.15;;;26.50;99.90;;;;;;5094031;28;20168;-70
2022/07/10 10:31:15;;;;;;;6.22;2.53;;;26.50;99.90;;;;;;5093594;28;20175;-70
2022/07/10 10:33:42;;;;;;;2.80;2.13;;;26.50;99.90;;;;;;5093445;28;20634;-70
2022/07/10 10:36:11;;;;;;;3.60;2.30;;;27.10;99.90;;;;;;5094094;28;20213;-71
2022/07/10 10:38:58;;;;;;;4.28;2.55;;;27.50;99.90;;;;;;5093310;28;20174;-70
2022/07/10 10:41:24;;;;;;;2.45;2.20;;;26.80;99.90;;;;;;5092873;28;20973;-70
2022/07/10 10:44:08;;;;;;;3.97;2.40;;;26.30;99.90;;;;;;5092953;28;20172;-70
2022/07/10 10:46:49;;;;;;;4.60;2.42;;;25.90;99.90;;;;;;5093026;28;20655;-69
2022/07/10 10:49:16;;;;;;;3.75;2.38;;;24.90;1.00;;;;;;5093071;28;20199;-70
2022/07/10 10:52:04;;;;;;;3.40;2.40;;;25.20;1.00;;;;;;5093324;28;20183;-70
2022/07/10 10:54:31;;;;;;;6.55;2.30;;;25.80;99.90;;;;;;5092761;28;20262;-70
2022/07/10 10:57:13;;;;;;;2.53;2.33;;;26.20;99.90;;;;;;5093375;28;20179;-70
2022/07/10 10:59:49;;;;;;;6.95;2.40;;;26.60;99.90;;;;;;5093230;28;20523;-70
2022/07/10 11:02:29;;;;;;;3.55;2.50;;;26.90;99.90;;;;;;5092810;28;20195;-69
2022/07/10 11:05:19;;;;;;;3.00;2.70;;;27.30;99.90;;;;;;5093023;28;20210;-71
2022/07/10 11:07:58;;;;;;;4.07;2.08;;;27.80;99.90;;;;;;5092830;28;20165;-70
2022/07/10 11:10:31;;;;;;;5.03;2.28;;;27.70;99.90;;;;;;5092129;28;20222;-69
2022/07/10 11:13:00;;;;;;;2.45;2.20;;;27.80;99.90;;;;;;5093240;28;20225;-70
2022/07/10 11:15:30;;;;;;;4.55;2.30;;;28.10;99.90;;;;;;5093262;28;20168;-70
2022/07/10 11:17:57;;;;;;;3.53;2.10;;;28.60;99.90;;;;;;5092792;28;20178;-70
2022/07/10 11:20:22;;;;;;;2.22;2.03;;;28.50;99.90;;;;;;5092929;28;20509;-70
2022/07/10 11:23:18;;;;;;;2.95;2.33;;;28.50;99.90;;;;;;5092208;28;20211;-70
2022/07/10 11:26:12;;;;;;;2.38;2.15;;;29.10;99.90;;;;;;5010381;28;20178;-70
2022/07/10 11:28:43;;;;;;;2.30;2.10;;;28.70;99.90;;;;;;5011171;28;20183;-70
2022/07/10 11:31:09;;;;;;;3.13;2.40;;;28.40;99.90;;;;;;5011102;28;20181;-71
2022/07/10 11:33:43;;;;;;;3.75;2.17;;;28.20;99.90;;;;;;4994031;28;20178;-71
2022/07/10 11:36:13;;;;;;;2.42;2.00;;;27.10;99.90;;;;;;5010967;28;20186;-70
2022/07/10 11:38:40;;;;;;;4.00;3.67;;;27.70;99.90;;;;;;5010551;28;20258;-71
2022/07/10 11:41:16;;;;;;;2.30;1.88;;;27.90;99.90;;;;;;5010305;28;20198;-71
2022/07/10 11:43:59;;;;;;;2.75;2.10;;;27.50;99.90;;;;;;5010903;28;20278;-70
2022/07/10 11:46:28;;;;;;;4.57;1.90;;;26.10;99.90;;;;;;5010708;28;20744;-70
2022/07/10 11:48:58;;;;;;;3.25;2.22;;;26.20;99.90;;;;;;5010475;28;20185;-70
2022/07/10 11:51:29;;;;;;;2.35;2.15;;;26.60;99.90;;;;;;5010110;28;20202;-70
2022/07/10 11:54:02;;;;;;;3.13;2.28;;;27.20;99.90;;;;;;5013704;28;20717;-71
2022/07/10 11:56:32;;;;;;;3.38;1.77;;;27.60;99.90;;;;;;5014606;28;20258;-71
2022/07/10 11:59:00;;;;;;;2.28;1.70;;;27.60;99.90;;;;;;5014139;28;20183;-71
2022/07/10 12:01:32;;;;;;;2.20;1.90;;;28.30;99.90;;;;;;5032676;28;20208;-71
2022/07/10 12:04:03;;;;;;;4.55;2.17;;;28.40;99.90;;;;;;5096489;28;20175;-72
2022/07/10 12:06:31;;;;;;;2.20;1.95;;;28.90;99.90;;;;;;5096013;28;20172;-70
2022/07/10 12:09:05;;;;;;;3.80;1.85;;;28.80;99.90;;;;;;5096827;28;20176;-71
2022/07/10 12:11:31;;;;;;;3.83;2.53;;;28.70;99.90;;;;;;5095949;28;20215;-70
2022/07/10 12:14:14;;;;;;;3.45;1.85;;;28.90;99.90;;;;;;5096363;28;20171;-70
2022/07/10 12:16:42;;;;;;;3.45;1.70;;;29.10;99.90;;;;;;5096431;28;20661;-70
2022/07/10 12:19:08;;;;;;;3.45;1.50;;;28.90;99.90;;;;;;5096110;28;20232;-69
2022/07/10 12:21:35;;;;;;;2.80;1.80;;;26.90;99.90;;;;;;5095822;28;20256;-69
2022/07/10 12:24:04;;;;;;;2.38;1.63;;;26.30;99.90;;;;;;5096443;28;20195;-69
2022/07/10 12:26:37;;;;;;;2.78;1.90;;;26.20;99.90;;;;;;5095853;28;20211;-68
2022/07/10 12:29:04;;;;;;;3.45;1.80;;;26.20;99.90;;;;;;5096215;28;20172;-70
2022/07/10 12:31:32;;;;;;;3.38;1.90;;;26.10;99.90;;;;;;5096249;28;20572;-70
2022/07/10 12:34:03;;;;;;;4.00;1.65;;;26.40;99.90;;;;;;5096104;28;20172;-70
2022/07/10 12:36:51;;;;;;;2.22;1.80;;;26.80;99.90;;;;;;5095828;28;20175;-69
2022/07/10 12:39:24;;;;;;;3.33;1.60;;;25.60;99.90;;;;;;5095626;28;20164;-69
2022/07/10 12:41:54;;;;;;;3.03;2.05;;;25.20;1.00;;;;;;5095504;28;20210;-69
2022/07/10 12:44:49;;;;;;;2.88;1.58;;;25.60;1.00;;;;;;5096041;28;20635;-71
2022/07/10 12:47:19;;;;;;;2.40;1.95;;;26.10;99.90;;;;;;5092314;28;20661;-70
2022/07/10 12:49:53;;;;;;;2.05;1.85;;;26.60;99.90;;;;;;5095232;28;20148;-70
2022/07/10 12:52:27;;;;;;;1.98;1.75;;;27.00;99.90;;;;;;5095809;28;20201;-69
2022/07/10 12:55:13;;;;;;;1.98;1.77;;;26.10;99.90;;;;;;5095714;28;20172;-69
2022/07/10 12:57:58;;;;;;;2.15;1.45;;;25.90;99.90;;;;;;5095261;28;20172;-69
2022/07/10 13:00:23;;;;;;;1.70;1.50;;;25.30;1.00;;;;;;5095459;28;20220;-70
2022/07/10 13:02:57;;;;;;;3.25;2.10;;;25.10;1.00;;;;;;5094991;28;20211;-70